createdAt,value
2022-08-17T00:02:26.290Z,11.03
2022-08-17T00:04:55.203Z,11.13
2022-08-17T00:07:22.586Z,12.20
2022-08-17T00:09:49.617Z,11.80
2022-08-17T00:12:42.620Z,11.97
2022-08-17T00:15:05.268Z,12.20
2022-08-17T00:17:33.008Z,12.27
2022-08-17T00:20:00.362Z,11.83
2022-08-17T00:22:32.215Z,12.03
2022-08-17T00:25:05.581Z,10.97
2022-08-17T00:27:32.508Z,10.40
2022-08-17T00:29:59.631Z,9.70
2022-08-17T00:33:12.355Z,10.63
2022-08-17T00:35:17.825Z,9.73
2022-08-17T00:37:44.802Z,9.80
2022-08-17T00:40:13.601Z,9.87
2022-08-17T00:42:41.092Z,11.43
2022-08-17T00:45:10.247Z,10.03
2022-08-17T00:47:37.258Z,10.77
2022-08-17T00:50:07.316Z,11.50
2022-08-17T00:52:36.213Z,9.17
2022-08-17T00:55:04.156Z,8.63
2022-08-17T00:57:36.788Z,9.63
2022-08-17T01:00:29.932Z,10.50
2022-08-17T01:03:06.652Z,10.17
2022-08-17T01:05:34.856Z,10.77
2022-08-17T01:08:02.311Z,10.50
2022-08-17T01:10:59.457Z,9.53
2022-08-17T01:13:40.352Z,10.80
2022-08-17T01:16:12.148Z,10.83
2022-08-17T01:18:39.455Z,11.23
2022-08-17T01:21:13.824Z,9.80
2022-08-17T01:23:43.051Z,9.70
2022-08-17T01:26:10.029Z,9.20
2022-08-17T01:28:55.030Z,10.27
2022-08-17T01:31:23.835Z,10.00
2022-08-17T01:33:50.741Z,9.03
2022-08-17T01:36:18.324Z,7.90
2022-08-17T01:38:45.299Z,7.80
2022-08-17T01:41:14.197Z,9.37
2022-08-17T01:43:45.771Z,9.90
2022-08-17T01:46:21.159Z,9.60
2022-08-17T01:48:48.734Z,9.30
2022-08-17T01:51:16.231Z,9.43
2022-08-17T01:53:46.497Z,10.93
2022-08-17T01:56:14.997Z,10.67
2022-08-17T01:58:42.916Z,11.17
2022-08-17T02:01:10.390Z,11.07
2022-08-17T02:03:38.037Z,10.13
2022-08-17T02:06:11.983Z,11.67
2022-08-17T02:09:03.152Z,12.60
2022-08-17T02:11:32.282Z,12.17
2022-08-17T02:14:02.922Z,12.50
2022-08-17T02:16:37.082Z,12.17
2022-08-17T02:19:09.506Z,12.47
2022-08-17T02:21:37.730Z,12.90
2022-08-17T02:24:05.513Z,14.10
2022-08-17T02:26:32.741Z,12.57
2022-08-17T02:28:59.854Z,14.40
2022-08-17T02:31:26.933Z,12.93
2022-08-17T02:34:00.394Z,13.00
2022-08-17T02:36:32.328Z,13.93
2022-08-17T02:39:01.645Z,12.87
2022-08-17T02:41:28.769Z,13.47
2022-08-17T02:43:55.761Z,12.73
2022-08-17T02:46:22.889Z,12.57
2022-08-17T02:48:50.013Z,13.13
2022-08-17T02:51:17.276Z,13.00
2022-08-17T02:53:44.515Z,12.00
2022-08-17T02:56:11.478Z,11.87
2022-08-17T02:58:38.582Z,12.53
2022-08-17T03:01:06.307Z,12.20
2022-08-17T03:03:33.926Z,12.50
2022-08-17T03:06:01.397Z,10.90
2022-08-17T03:08:28.381Z,11.33
2022-08-17T03:10:55.425Z,11.87
2022-08-17T03:13:22.659Z,12.13
2022-08-17T03:15:49.898Z,12.77
2022-08-17T03:18:24.202Z,12.23
2022-08-17T03:20:52.920Z,12.63
2022-08-17T03:23:24.123Z,13.57
2022-08-17T03:25:52.862Z,13.77
2022-08-17T03:28:20.750Z,14.70
2022-08-17T03:30:47.813Z,13.63
2022-08-17T03:33:14.878Z,12.57
2022-08-17T03:35:42.340Z,13.03
2022-08-17T03:38:10.451Z,14.50
2022-08-17T03:40:58.703Z,13.40
2022-08-17T03:43:24.973Z,13.10
2022-08-17T03:46:25.523Z,14.27
2022-08-17T03:49:16.449Z,13.73
2022-08-17T03:52:01.968Z,14.27
2022-08-17T03:54:47.433Z,13.23
2022-08-17T03:57:14.560Z,13.20
2022-08-17T03:59:41.540Z,13.17
2022-08-17T04:02:12.057Z,14.30
2022-08-17T04:04:40.269Z,14.20
2022-08-17T04:07:07.557Z,14.13
2022-08-17T04:09:34.778Z,14.33
2022-08-17T04:12:04.784Z,14.67
2022-08-17T04:14:51.422Z,13.73
2022-08-17T04:17:20.386Z,13.70
2022-08-17T04:19:47.473Z,14.60
2022-08-17T04:22:31.184Z,14.00
2022-08-17T04:25:06.592Z,14.37
2022-08-17T04:27:33.694Z,13.73
2022-08-17T04:30:00.950Z,13.80
2022-08-17T04:33:03.692Z,15.00
2022-08-17T04:35:18.479Z,14.87
2022-08-17T04:37:45.542Z,14.67
2022-08-17T04:40:31.111Z,15.07
2022-08-17T04:43:18.604Z,14.03
2022-08-17T04:45:55.671Z,15.37
2022-08-17T04:48:36.574Z,15.83
2022-08-17T04:51:15.000Z,14.33
2022-08-17T04:53:44.645Z,15.63
2022-08-17T04:56:17.093Z,16.00
2022-08-17T04:58:47.198Z,15.77
2022-08-17T05:01:14.732Z,16.20
2022-08-17T05:03:42.282Z,15.93
2022-08-17T05:06:09.678Z,15.70
2022-08-17T05:08:36.748Z,16.87
2022-08-17T05:11:04.046Z,15.50
2022-08-17T05:13:31.078Z,16.07
2022-08-17T05:16:02.055Z,16.10
2022-08-17T05:18:29.276Z,17.17
2022-08-17T05:20:56.761Z,18.23
2022-08-17T05:23:24.808Z,17.60
2022-08-17T05:25:52.852Z,18.50
2022-08-17T05:28:26.700Z,18.30
2022-08-17T05:30:56.200Z,17.67
2022-08-17T05:33:24.685Z,19.67
2022-08-17T05:35:52.355Z,19.53
2022-08-17T05:38:20.438Z,19.10
2022-08-17T05:40:47.989Z,19.60
2022-08-17T05:43:19.485Z,19.23
2022-08-17T05:45:54.729Z,19.23
2022-08-17T05:48:39.479Z,19.93
2022-08-17T05:51:07.453Z,19.67
2022-08-17T05:54:00.391Z,19.77
2022-08-17T05:56:36.745Z,19.80
2022-08-17T05:59:22.057Z,20.53
2022-08-17T06:01:56.222Z,21.23
2022-08-17T06:04:41.624Z,20.23
2022-08-17T06:07:14.550Z,20.43
2022-08-17T06:09:49.212Z,19.80
2022-08-17T06:12:25.228Z,20.90
2022-08-17T06:14:52.913Z,21.00
2022-08-17T06:17:22.223Z,20.27
2022-08-17T06:20:00.527Z,20.87
2022-08-17T06:22:29.859Z,21.87
2022-08-17T06:25:04.839Z,20.60
2022-08-17T06:27:47.481Z,21.37
2022-08-17T06:30:26.085Z,19.37
2022-08-17T06:32:55.423Z,20.30
2022-08-17T06:35:32.095Z,20.20
2022-08-17T06:38:38.039Z,21.13
2022-08-17T06:41:24.532Z,21.17
2022-08-17T06:43:59.487Z,19.90
2022-08-17T06:46:26.439Z,20.30
2022-08-17T06:48:54.085Z,18.90
2022-08-17T06:51:33.607Z,20.57
2022-08-17T06:54:05.769Z,19.60
2022-08-17T06:56:54.800Z,20.10
2022-08-17T06:59:25.651Z,21.37
2022-08-17T07:01:53.987Z,20.20
2022-08-17T07:04:24.473Z,21.97
2022-08-17T07:06:52.806Z,21.23
2022-08-17T07:09:26.321Z,20.63
2022-08-17T07:11:55.902Z,19.43
2022-08-17T07:14:32.172Z,20.20
2022-08-17T07:17:02.213Z,19.57
2022-08-17T07:19:31.974Z,17.53
2022-08-17T07:22:14.212Z,19.13
2022-08-17T07:24:47.661Z,17.83
2022-08-17T07:27:17.543Z,18.67
2022-08-17T07:29:56.888Z,19.10
2022-08-17T07:32:26.633Z,18.27
2022-08-17T07:35:21.299Z,16.80
2022-08-17T07:37:58.913Z,17.37
2022-08-17T07:40:28.742Z,15.67
2022-08-17T07:43:04.949Z,16.43
2022-08-17T07:45:51.166Z,17.60
2022-08-17T07:48:22.494Z,16.03
2022-08-17T07:50:50.787Z,14.00
2022-08-17T07:53:25.931Z,14.67
2022-08-17T07:55:53.819Z,14.33
2022-08-17T07:58:22.269Z,14.33
2022-08-17T08:01:11.908Z,16.57
2022-08-17T08:03:42.159Z,15.17
2022-08-17T08:06:20.466Z,12.00
2022-08-17T08:08:52.081Z,13.23
2022-08-17T08:11:44.136Z,13.10
2022-08-17T08:14:31.495Z,12.37
2022-08-17T08:17:02.666Z,13.20
2022-08-17T08:19:30.449Z,11.73
2022-08-17T08:22:04.391Z,12.10
2022-08-17T08:25:00.901Z,12.60
2022-08-17T08:27:27.977Z,12.97
2022-08-17T08:30:03.136Z,13.23
2022-08-17T08:32:37.123Z,13.20
2022-08-17T08:35:04.687Z,12.53
2022-08-17T08:37:39.120Z,12.07
2022-08-17T08:40:14.147Z,11.87
2022-08-17T08:43:13.664Z,12.77
2022-08-17T08:45:56.795Z,12.00
2022-08-17T08:48:56.511Z,12.23
2022-08-17T08:51:47.235Z,12.40
2022-08-17T08:54:31.998Z,11.47
2022-08-17T08:57:34.027Z,11.30
2022-08-17T09:00:09.214Z,9.63
2022-08-17T09:02:54.958Z,10.10
2022-08-17T09:05:21.931Z,11.20
2022-08-17T09:08:10.538Z,11.97
2022-08-17T09:10:57.041Z,11.40
2022-08-17T09:13:34.000Z,11.17
2022-08-17T09:16:11.606Z,11.30
2022-08-17T09:19:03.527Z,12.50
2022-08-17T09:21:48.551Z,11.43
2022-08-17T09:24:28.934Z,11.10
2022-08-17T09:27:11.363Z,11.27
2022-08-17T09:29:40.292Z,11.90
2022-08-17T09:32:30.168Z,11.73
2022-08-17T09:35:02.021Z,12.60
2022-08-17T09:37:43.998Z,12.17
2022-08-17T09:40:20.230Z,13.10
2022-08-17T09:42:47.341Z,11.53
2022-08-17T09:45:32.873Z,12.87
2022-08-17T09:48:05.005Z,12.00
2022-08-17T09:51:05.174Z,11.47
2022-08-17T09:53:31.920Z,11.63
2022-08-17T09:56:17.953Z,11.40
2022-08-17T09:58:55.948Z,11.23
2022-08-17T10:01:29.372Z,12.63
2022-08-17T10:03:59.370Z,14.23
2022-08-17T10:06:30.488Z,12.47
2022-08-17T10:08:57.697Z,12.70
2022-08-17T10:11:45.698Z,13.10
2022-08-17T10:14:37.681Z,12.23
2022-08-17T10:17:29.874Z,13.10
2022-08-17T10:20:16.594Z,12.83
2022-08-17T10:23:07.346Z,13.43
2022-08-17T10:26:13.231Z,13.50
2022-08-17T10:29:03.967Z,11.87
2022-08-17T10:31:36.281Z,12.13
2022-08-17T10:34:38.746Z,10.83
2022-08-17T10:37:08.273Z,10.60
2022-08-17T10:39:52.693Z,11.60
2022-08-17T10:42:32.850Z,12.30
2022-08-17T10:45:06.391Z,11.37
2022-08-17T10:47:55.378Z,11.00
2022-08-17T10:50:42.857Z,11.63
2022-08-17T10:53:09.992Z,11.37
2022-08-17T10:55:36.882Z,11.83
2022-08-17T10:58:21.209Z,11.33
2022-08-17T11:00:51.060Z,11.33
2022-08-17T11:03:22.655Z,11.33
2022-08-17T11:05:55.440Z,10.97
2022-08-17T11:08:43.316Z,11.70
2022-08-17T11:11:13.194Z,10.63
2022-08-17T11:13:40.804Z,11.73
2022-08-17T11:16:29.349Z,11.73
2022-08-17T11:19:10.536Z,10.57
2022-08-17T11:21:56.394Z,11.13
2022-08-17T11:24:38.608Z,11.30
2022-08-17T11:27:12.315Z,10.50
2022-08-17T11:30:01.810Z,10.03
2022-08-17T11:32:32.536Z,10.53
2022-08-17T11:35:28.665Z,10.90
2022-08-17T11:38:03.247Z,11.00
2022-08-17T11:40:33.301Z,9.47
2022-08-17T11:43:03.819Z,9.57
2022-08-17T11:45:49.868Z,10.10
2022-08-17T11:48:41.224Z,11.63
2022-08-17T11:51:34.055Z,11.27
2022-08-17T11:54:31.837Z,11.23
2022-08-17T11:56:55.830Z,10.10
2022-08-17T11:59:40.227Z,10.70
2022-08-17T12:02:31.613Z,9.80
2022-08-17T12:05:05.481Z,10.27
2022-08-17T12:07:45.019Z,10.00
2022-08-17T12:10:13.344Z,9.60
2022-08-17T12:12:44.322Z,9.10
2022-08-17T12:15:17.555Z,10.13
2022-08-17T12:17:55.050Z,10.23
2022-08-17T12:20:40.207Z,9.93
2022-08-17T12:23:15.345Z,9.97
2022-08-17T12:25:53.183Z,10.10
2022-08-17T12:28:30.498Z,9.07
2022-08-17T12:31:06.073Z,9.47
2022-08-17T12:33:33.425Z,9.60
2022-08-17T12:36:03.307Z,9.37
2022-08-17T12:38:36.353Z,10.53
2022-08-17T12:41:25.128Z,11.00
2022-08-17T12:44:02.460Z,10.10
2022-08-17T12:46:34.214Z,9.77
2022-08-17T12:49:19.868Z,9.50
2022-08-17T12:51:47.153Z,8.87
2022-08-17T12:54:25.569Z,9.47
2022-08-17T12:56:52.781Z,8.80
2022-08-17T12:59:30.388Z,9.27
2022-08-17T13:01:57.803Z,9.57
2022-08-17T13:04:26.535Z,9.67
2022-08-17T13:06:59.645Z,9.47
2022-08-17T13:09:35.590Z,9.53
2022-08-17T13:12:08.057Z,10.77
2022-08-17T13:14:35.522Z,10.80
2022-08-17T13:17:08.366Z,10.20
2022-08-17T13:19:48.261Z,9.33
2022-08-17T13:22:15.272Z,9.60
2022-08-17T13:24:53.289Z,10.27
2022-08-17T13:27:21.364Z,9.60
2022-08-17T13:29:51.528Z,8.43
2022-08-17T13:32:23.280Z,9.53
2022-08-17T13:35:11.972Z,9.30
2022-08-17T13:37:56.180Z,9.53
2022-08-17T13:40:23.001Z,9.47
2022-08-17T13:42:52.854Z,9.33
2022-08-17T13:45:35.534Z,9.10
2022-08-17T13:48:24.141Z,9.13
2022-08-17T13:50:57.272Z,9.00
2022-08-17T13:53:29.765Z,8.90
2022-08-17T13:56:36.912Z,9.13
2022-08-17T13:59:01.050Z,8.80
2022-08-17T14:01:29.334Z,10.17
2022-08-17T14:03:56.606Z,10.33
2022-08-17T14:06:51.838Z,9.17
2022-08-17T14:09:12.619Z,9.47
2022-08-17T14:11:39.466Z,10.13
2022-08-17T14:14:06.453Z,9.00
2022-08-17T14:16:33.625Z,10.20
2022-08-17T14:19:00.536Z,9.30
2022-08-17T14:21:27.405Z,9.70
2022-08-17T14:23:55.052Z,9.63
2022-08-17T14:26:22.044Z,8.83
2022-08-17T14:28:56.551Z,10.07
2022-08-17T14:31:24.186Z,9.67
2022-08-17T14:33:52.262Z,9.63
2022-08-17T14:36:19.128Z,9.57
2022-08-17T14:38:46.124Z,10.50
2022-08-17T14:41:13.068Z,9.43
2022-08-17T14:43:40.158Z,9.93
2022-08-17T14:46:07.205Z,9.17
2022-08-17T14:48:35.984Z,10.17
2022-08-17T14:51:04.399Z,8.93
2022-08-17T14:53:31.284Z,8.60
2022-08-17T14:55:58.222Z,10.43
2022-08-17T14:58:25.177Z,9.97
2022-08-17T15:00:52.982Z,8.27
2022-08-17T15:03:19.905Z,8.83
2022-08-17T15:05:46.960Z,9.30
2022-08-17T15:08:14.111Z,8.97
2022-08-17T15:10:41.237Z,9.30
2022-08-17T15:13:20.147Z,9.07
2022-08-17T15:15:47.608Z,9.30
2022-08-17T15:18:14.695Z,9.40
2022-08-17T15:20:43.032Z,8.73
2022-08-17T15:23:16.442Z,8.97
2022-08-17T15:25:44.006Z,8.70
2022-08-17T15:28:10.929Z,8.23
2022-08-17T15:30:38.562Z,9.23
2022-08-17T15:33:05.755Z,8.90
2022-08-17T15:35:33.262Z,8.10
2022-08-17T15:38:07.954Z,8.90
2022-08-17T15:40:39.081Z,8.83
2022-08-17T15:43:06.860Z,8.67
2022-08-17T15:45:33.898Z,8.43
2022-08-17T15:48:00.913Z,7.87
2022-08-17T15:50:27.798Z,7.30
2022-08-17T15:52:55.918Z,8.60
2022-08-17T15:55:24.289Z,8.87
2022-08-17T15:57:52.354Z,8.37
2022-08-17T16:00:20.027Z,8.23
2022-08-17T16:03:44.507Z,8.03
2022-08-17T16:05:35.558Z,8.27
2022-08-17T16:08:02.453Z,8.13
2022-08-17T16:10:35.197Z,7.87
2022-08-17T16:13:03.505Z,7.70
2022-08-17T16:15:31.876Z,7.70
2022-08-17T16:17:59.413Z,7.80
2022-08-17T16:20:26.406Z,7.73
2022-08-17T16:22:53.791Z,7.73
2022-08-17T16:25:23.137Z,7.87
2022-08-17T16:28:10.110Z,7.47
2022-08-17T16:30:37.642Z,7.73
2022-08-17T16:33:04.988Z,7.03
2022-08-17T16:35:31.920Z,8.83
2022-08-17T16:37:59.182Z,7.20
2022-08-17T16:40:27.070Z,7.93
2022-08-17T16:42:54.429Z,7.47
2022-08-17T16:45:23.227Z,8.20
2022-08-17T16:47:50.490Z,8.03
2022-08-17T16:50:18.649Z,7.90
2022-08-17T16:52:48.605Z,8.43
2022-08-17T16:55:20.580Z,8.20
2022-08-17T16:57:50.344Z,8.10
2022-08-17T17:00:18.510Z,7.77
2022-08-17T17:02:47.436Z,6.97
2022-08-17T17:05:25.434Z,7.87
2022-08-17T17:08:09.158Z,7.67
2022-08-17T17:10:38.988Z,7.20
2022-08-17T17:13:09.713Z,7.47
2022-08-17T17:15:46.576Z,7.13
2022-08-17T17:18:15.426Z,7.83
2022-08-17T17:20:53.748Z,7.57
2022-08-17T17:23:23.376Z,7.20
2022-08-17T17:26:02.452Z,7.83
2022-08-17T17:28:29.319Z,7.43
2022-08-17T17:31:02.344Z,8.67
2022-08-17T17:33:36.741Z,8.47
2022-08-17T17:36:22.295Z,8.70
2022-08-17T17:38:53.240Z,8.50
2022-08-17T17:41:38.954Z,8.70
2022-08-17T17:44:08.329Z,9.63
2022-08-17T17:46:38.548Z,8.77
2022-08-17T17:49:11.424Z,9.33
2022-08-17T17:52:09.969Z,8.73
2022-08-17T17:54:51.227Z,8.23
2022-08-17T17:57:36.618Z,9.40
2022-08-17T18:00:18.699Z,8.60
2022-08-17T18:03:10.199Z,8.73
2022-08-17T18:05:37.256Z,9.07
2022-08-17T18:08:11.064Z,8.07
2022-08-17T18:10:38.123Z,8.60
2022-08-17T18:13:13.015Z,7.87
2022-08-17T18:15:42.846Z,8.53
2022-08-17T18:18:16.174Z,9.10
2022-08-17T18:20:53.292Z,9.60
2022-08-17T18:23:27.639Z,8.63
2022-08-17T18:25:56.102Z,9.37
2022-08-17T18:28:28.590Z,9.90
2022-08-17T18:31:10.624Z,9.60
2022-08-17T18:33:38.658Z,8.70
2022-08-17T18:36:06.398Z,8.93
2022-08-17T18:38:35.142Z,9.80
2022-08-17T18:41:23.825Z,9.30
2022-08-17T18:44:02.052Z,10.10
2022-08-17T18:46:35.364Z,9.90
2022-08-17T18:49:07.055Z,11.53
2022-08-17T18:51:41.110Z,10.27
2022-08-17T18:54:20.324Z,10.50
2022-08-17T18:57:00.304Z,9.93
2022-08-17T18:59:27.325Z,10.63
2022-08-17T19:01:58.873Z,10.57
2022-08-17T19:04:28.624Z,10.00
2022-08-17T19:07:05.586Z,9.43
2022-08-17T19:09:34.857Z,10.47
2022-08-17T19:12:04.123Z,9.60
2022-08-17T19:14:31.452Z,11.30
2022-08-17T19:17:02.022Z,10.37
2022-08-17T19:19:28.893Z,9.87
2022-08-17T19:21:57.478Z,10.00
2022-08-17T19:24:26.590Z,9.63
2022-08-17T19:27:11.294Z,10.93
2022-08-17T19:29:47.493Z,10.70
2022-08-17T19:32:16.124Z,12.83
2022-08-17T19:34:44.653Z,11.10
2022-08-17T19:37:21.808Z,11.17
2022-08-17T19:40:24.522Z,11.27
2022-08-17T19:43:06.757Z,11.23
2022-08-17T19:45:33.655Z,12.30
2022-08-17T19:48:20.154Z,14.50
2022-08-17T19:50:56.040Z,15.03
2022-08-17T19:53:33.205Z,16.13
2022-08-17T19:56:20.313Z,12.63
2022-08-17T19:58:51.426Z,12.03
2022-08-17T20:01:41.895Z,12.63
2022-08-17T20:04:13.172Z,12.63
2022-08-17T20:06:43.302Z,12.63
2022-08-17T20:09:15.309Z,12.70
2022-08-17T20:11:46.686Z,12.63
2022-08-17T20:14:15.232Z,12.87
2022-08-17T20:16:42.392Z,14.33
2022-08-17T20:19:28.449Z,13.70
2022-08-17T20:22:06.583Z,14.07
2022-08-17T20:24:52.354Z,13.33
2022-08-17T20:27:21.847Z,13.07
2022-08-17T20:30:03.124Z,14.80
2022-08-17T20:32:33.805Z,15.87
2022-08-17T20:35:19.444Z,13.37
2022-08-17T20:37:54.580Z,14.73
2022-08-17T20:40:38.700Z,14.93
2022-08-17T20:43:24.945Z,14.27
2022-08-17T20:45:58.038Z,15.67
2022-08-17T20:48:38.741Z,16.07
2022-08-17T20:51:17.765Z,15.83
2022-08-17T20:53:47.727Z,15.63
2022-08-17T20:56:33.248Z,15.73
2022-08-17T20:59:01.184Z,17.53
2022-08-17T21:01:39.840Z,17.00
2022-08-17T21:04:08.513Z,17.63
2022-08-17T21:06:55.331Z,16.97
2022-08-17T21:09:28.819Z,17.03
2022-08-17T21:12:04.661Z,17.43
2022-08-17T21:14:52.506Z,17.20
2022-08-17T21:17:39.626Z,15.43
2022-08-17T21:20:14.999Z,15.50
2022-08-17T21:23:02.079Z,16.17
2022-08-17T21:25:48.412Z,14.80
2022-08-17T21:28:15.237Z,16.17
2022-08-17T21:30:47.891Z,15.83
2022-08-17T21:33:31.699Z,16.00
2022-08-17T21:36:14.518Z,15.67
2022-08-17T21:38:49.056Z,16.00
2022-08-17T21:41:23.813Z,17.07
2022-08-17T21:43:52.371Z,16.90
2022-08-17T21:46:30.548Z,18.50
2022-08-17T21:49:03.181Z,18.67
2022-08-17T21:51:44.963Z,17.53
2022-08-17T21:54:32.123Z,17.00
2022-08-17T21:57:01.421Z,18.27
2022-08-17T21:59:30.811Z,17.73
2022-08-17T22:01:59.560Z,16.43
2022-08-17T22:04:34.297Z,17.57
2022-08-17T22:07:03.326Z,16.80
2022-08-17T22:09:31.868Z,17.33
2022-08-17T22:12:01.558Z,16.63
2022-08-17T22:14:52.629Z,17.53
2022-08-17T22:17:17.530Z,16.93
2022-08-17T22:19:46.397Z,17.07
2022-08-17T22:22:27.914Z,16.77
2022-08-17T22:24:58.712Z,16.60
2022-08-17T22:27:45.936Z,17.50
2022-08-17T22:30:25.195Z,16.97
2022-08-17T22:32:52.273Z,17.23
2022-08-17T22:35:25.354Z,17.00
2022-08-17T22:37:52.730Z,16.67
2022-08-17T22:40:33.211Z,17.57
2022-08-17T22:43:01.700Z,17.20
2022-08-17T22:45:33.871Z,17.83
2022-08-17T22:48:02.284Z,18.73
2022-08-17T22:50:30.650Z,17.73
2022-08-17T22:53:20.891Z,17.57
2022-08-17T22:56:14.863Z,16.97
2022-08-17T22:59:18.800Z,17.87
2022-08-17T23:02:05.962Z,18.03
2022-08-17T23:04:35.608Z,16.80
2022-08-17T23:07:02.591Z,17.87
2022-08-17T23:09:30.116Z,18.90
2022-08-17T23:12:00.139Z,18.30
2022-08-17T23:14:31.703Z,18.97
2022-08-17T23:16:59.586Z,17.17
2022-08-17T23:19:27.505Z,17.33
2022-08-17T23:21:55.932Z,17.17
2022-08-17T23:24:25.493Z,18.17
2022-08-17T23:26:52.668Z,18.07
2022-08-17T23:29:21.532Z,18.77
2022-08-17T23:31:49.502Z,17.00
2022-08-17T23:34:18.581Z,18.50
2022-08-17T23:36:55.055Z,16.77
2022-08-17T23:39:27.360Z,15.87
2022-08-17T23:41:55.114Z,16.13
2022-08-17T23:44:24.007Z,17.03
2022-08-17T23:46:51.635Z,16.83
2022-08-17T23:49:19.286Z,19.23
2022-08-17T23:51:48.020Z,18.17
2022-08-17T23:54:23.376Z,18.43
2022-08-17T23:56:50.721Z,19.00
2022-08-17T23:59:18.645Z,17.60
